sensor_id;sensor_type;location;lat;lon;timestamp;P1;durP1;ratioP1;P2;durP2;ratioP2
54157;SDS011;40065;49.894;10.358;2022-07-22T00:02:38;5.18;;;4.68;;
54157;SDS011;40065;49.894;10.358;2022-07-22T00:07:40;7.47;;;5.70;;
54157;SDS011;40065;49.894;10.358;2022-07-22T00:12:43;5.45;;;4.53;;
54157;SDS011;40065;49.894;10.358;2022-07-22T00:17:44;6.13;;;4.85;;
54157;SDS011;40065;49.894;10.358;2022-07-22T00:22:46;6.00;;;4.75;;
54157;SDS011;40065;49.894;10.358;2022-07-22T00:27:48;7.15;;;5.63;;
54157;SDS011;40065;49.894;10.358;2022-07-22T00:32:50;5.10;;;4.47;;
54157;SDS011;40065;49.894;10.358;2022-07-22T00:37:52;5.43;;;4.63;;
54157;SDS011;40065;49.894;10.358;2022-07-22T00:42:53;8.48;;;5.82;;
54157;SDS011;40065;49.894;10.358;2022-07-22T00:47:56;5.63;;;4.97;;
54157;SDS011;40065;49.894;10.358;2022-07-22T00:52:58;8.55;;;5.03;;
54157;SDS011;40065;49.894;10.358;2022-07-22T00:58:00;7.40;;;5.53;;
54157;SDS011;40065;49.894;10.358;2022-07-22T01:03:02;6.65;;;5.55;;
54157;SDS011;40065;49.894;10.358;2022-07-22T01:08:05;5.97;;;5.20;;
54157;SDS011;40065;49.894;10.358;2022-07-22T01:13:07;6.65;;;4.95;;
54157;SDS011;40065;49.894;10.358;2022-07-22T01:18:09;5.95;;;4.50;;
54157;SDS011;40065;49.894;10.358;2022-07-22T01:23:11;6.20;;;5.03;;
54157;SDS011;40065;49.894;10.358;2022-07-22T01:28:13;5.75;;;4.68;;
54157;SDS011;40065;49.894;10.358;2022-07-22T01:33:19;8.35;;;5.93;;
54157;SDS011;40065;49.894;10.358;2022-07-22T01:38:22;6.50;;;5.25;;
54157;SDS011;40065;49.894;10.358;2022-07-22T01:43:25;6.32;;;5.10;;
54157;SDS011;40065;49.894;10.358;2022-07-22T01:48:27;6.25;;;5.20;;
54157;SDS011;40065;49.894;10.358;2022-07-22T01:53:29;7.40;;;5.43;;
54157;SDS011;40065;49.894;10.358;2022-07-22T01:58:30;5.53;;;4.65;;
54157;SDS011;40065;49.894;10.358;2022-07-22T02:03:41;6.40;;;5.47;;
54157;SDS011;40065;49.894;10.358;2022-07-22T02:08:43;5.78;;;5.18;;
54157;SDS011;40065;49.894;10.358;2022-07-22T02:13:53;7.30;;;4.97;;
54157;SDS011;40065;49.894;10.358;2022-07-22T02:18:55;6.85;;;5.82;;
54157;SDS011;40065;49.894;10.358;2022-07-22T02:23:57;7.60;;;5.45;;
54157;SDS011;40065;49.894;10.358;2022-07-22T02:28:59;7.25;;;5.70;;
54157;SDS011;40065;49.894;10.358;2022-07-22T02:34:01;8.68;;;6.35;;
54157;SDS011;40065;49.894;10.358;2022-07-22T02:39:04;9.45;;;6.68;;
54157;SDS011;40065;49.894;10.358;2022-07-22T02:44:06;9.07;;;6.32;;
54157;SDS011;40065;49.894;10.358;2022-07-22T02:49:08;7.20;;;5.70;;
54157;SDS011;40065;49.894;10.358;2022-07-22T02:54:10;6.45;;;5.60;;
54157;SDS011;40065;49.894;10.358;2022-07-22T02:59:13;7.43;;;6.03;;
54157;SDS011;40065;49.894;10.358;2022-07-22T03:04:15;7.70;;;6.10;;
54157;SDS011;40065;49.894;10.358;2022-07-22T03:09:18;7.50;;;5.68;;
54157;SDS011;40065;49.894;10.358;2022-07-22T03:14:20;8.23;;;6.25;;
54157;SDS011;40065;49.894;10.358;2022-07-22T03:19:23;7.30;;;6.05;;
54157;SDS011;40065;49.894;10.358;2022-07-22T03:24:27;6.57;;;5.30;;
54157;SDS011;40065;49.894;10.358;2022-07-22T03:29:28;8.63;;;6.28;;
54157;SDS011;40065;49.894;10.358;2022-07-22T03:34:30;6.60;;;5.57;;
54157;SDS011;40065;49.894;10.358;2022-07-22T03:39:38;6.30;;;5.30;;
54157;SDS011;40065;49.894;10.358;2022-07-22T03:44:40;6.13;;;5.22;;
54157;SDS011;40065;49.894;10.358;2022-07-22T03:49:43;7.65;;;5.50;;
54157;SDS011;40065;49.894;10.358;2022-07-22T03:54:47;6.00;;;5.05;;
54157;SDS011;40065;49.894;10.358;2022-07-22T03:59:48;6.55;;;5.20;;
54157;SDS011;40065;49.894;10.358;2022-07-22T04:04:51;7.32;;;6.40;;
54157;SDS011;40065;49.894;10.358;2022-07-22T04:09:53;6.07;;;5.18;;
54157;SDS011;40065;49.894;10.358;2022-07-22T04:15:08;6.80;;;5.80;;
54157;SDS011;40065;49.894;10.358;2022-07-22T04:20:10;7.25;;;5.28;;
54157;SDS011;40065;49.894;10.358;2022-07-22T04:25:41;7.45;;;5.60;;
54157;SDS011;40065;49.894;10.358;2022-07-22T04:30:43;7.35;;;4.78;;
54157;SDS011;40065;49.894;10.358;2022-07-22T04:35:45;6.18;;;5.05;;
54157;SDS011;40065;49.894;10.358;2022-07-22T04:40:51;6.15;;;5.30;;
54157;SDS011;40065;49.894;10.358;2022-07-22T04:45:56;5.68;;;4.28;;
54157;SDS011;40065;49.894;10.358;2022-07-22T04:51:02;7.10;;;5.15;;
54157;SDS011;40065;49.894;10.358;2022-07-22T04:56:06;6.78;;;5.70;;
54157;SDS011;40065;49.894;10.358;2022-07-22T05:01:08;5.90;;;4.65;;
54157;SDS011;40065;49.894;10.358;2022-07-22T05:06:10;5.28;;;4.25;;
54157;SDS011;40065;49.894;10.358;2022-07-22T05:11:15;6.95;;;5.07;;
54157;SDS011;40065;49.894;10.358;2022-07-22T05:16:19;5.82;;;4.28;;
54157;SDS011;40065;49.894;10.358;2022-07-22T05:21:21;6.00;;;4.80;;
54157;SDS011;40065;49.894;10.358;2022-07-22T05:26:23;6.20;;;4.78;;
54157;SDS011;40065;49.894;10.358;2022-07-22T05:31:27;5.07;;;4.07;;
54157;SDS011;40065;49.894;10.358;2022-07-22T05:36:29;5.97;;;4.65;;
54157;SDS011;40065;49.894;10.358;2022-07-22T05:41:32;5.90;;;4.40;;
54157;SDS011;40065;49.894;10.358;2022-07-22T05:46:35;7.38;;;5.32;;
54157;SDS011;40065;49.894;10.358;2022-07-22T05:51:37;7.53;;;5.25;;
54157;SDS011;40065;49.894;10.358;2022-07-22T05:56:39;7.22;;;4.20;;
54157;SDS011;40065;49.894;10.358;2022-07-22T06:01:41;7.80;;;5.32;;
54157;SDS011;40065;49.894;10.358;2022-07-22T06:07:03;5.00;;;4.22;;
54157;SDS011;40065;49.894;10.358;2022-07-22T06:12:07;5.22;;;3.97;;
54157;SDS011;40065;49.894;10.358;2022-07-22T06:17:10;5.63;;;5.03;;
54157;SDS011;40065;49.894;10.358;2022-07-22T06:22:12;7.13;;;5.50;;
54157;SDS011;40065;49.894;10.358;2022-07-22T06:27:14;5.35;;;4.30;;
54157;SDS011;40065;49.894;10.358;2022-07-22T06:32:16;5.10;;;4.18;;
54157;SDS011;40065;49.894;10.358;2022-07-22T06:37:21;6.70;;;4.53;;
54157;SDS011;40065;49.894;10.358;2022-07-22T06:42:44;5.28;;;4.25;;
54157;SDS011;40065;49.894;10.358;2022-07-22T06:48:00;6.00;;;4.53;;
54157;SDS011;40065;49.894;10.358;2022-07-22T06:58:05;4.82;;;3.60;;
54157;SDS011;40065;49.894;10.358;2022-07-22T07:03:07;8.68;;;4.90;;
54157;SDS011;40065;49.894;10.358;2022-07-22T07:08:32;4.55;;;3.88;;
54157;SDS011;40065;49.894;10.358;2022-07-22T07:13:35;6.93;;;4.35;;
54157;SDS011;40065;49.894;10.358;2022-07-22T07:18:37;5.63;;;4.07;;
54157;SDS011;40065;49.894;10.358;2022-07-22T07:23:39;4.28;;;3.63;;
54157;SDS011;40065;49.894;10.358;2022-07-22T07:28:41;6.68;;;4.40;;
54157;SDS011;40065;49.894;10.358;2022-07-22T07:33:49;6.30;;;4.05;;
54157;SDS011;40065;49.894;10.358;2022-07-22T07:43:54;4.18;;;3.67;;
54157;SDS011;40065;49.894;10.358;2022-07-22T07:48:57;6.47;;;3.83;;
54157;SDS011;40065;49.894;10.358;2022-07-22T07:54:00;5.70;;;3.58;;
54157;SDS011;40065;49.894;10.358;2022-07-22T07:59:02;4.38;;;3.70;;
54157;SDS011;40065;49.894;10.358;2022-07-22T08:04:25;4.60;;;3.33;;
54157;SDS011;40065;49.894;10.358;2022-07-22T08:09:43;3.70;;;3.30;;
54157;SDS011;40065;49.894;10.358;2022-07-22T08:14:54;5.38;;;4.05;;
54157;SDS011;40065;49.894;10.358;2022-07-22T08:20:00;4.70;;;3.75;;
54157;SDS011;40065;49.894;10.358;2022-07-22T08:25:02;4.75;;;3.58;;
54157;SDS011;40065;49.894;10.358;2022-07-22T08:30:05;7.85;;;3.58;;
54157;SDS011;40065;49.894;10.358;2022-07-22T08:35:08;4.35;;;3.30;;
54157;SDS011;40065;49.894;10.358;2022-07-22T08:45:13;5.55;;;3.30;;
54157;SDS011;40065;49.894;10.358;2022-07-22T08:50:20;6.35;;;3.50;;
54157;SDS011;40065;49.894;10.358;2022-07-22T08:55:45;6.75;;;3.67;;
54157;SDS011;40065;49.894;10.358;2022-07-22T09:01:03;4.47;;;3.30;;
54157;SDS011;40065;49.894;10.358;2022-07-22T09:06:06;4.88;;;3.60;;
54157;SDS011;40065;49.894;10.358;2022-07-22T09:11:16;4.50;;;3.67;;
54157;SDS011;40065;49.894;10.358;2022-07-22T09:16:38;4.32;;;3.60;;
54157;SDS011;40065;49.894;10.358;2022-07-22T09:22:03;5.70;;;3.70;;
54157;SDS011;40065;49.894;10.358;2022-07-22T09:27:25;8.15;;;3.97;;
54157;SDS011;40065;49.894;10.358;2022-07-22T09:32:54;5.97;;;3.67;;
54157;SDS011;40065;49.894;10.358;2022-07-22T09:38:18;5.50;;;3.50;;
54157;SDS011;40065;49.894;10.358;2022-07-22T09:43:34;4.15;;;3.15;;
54157;SDS011;40065;49.894;10.358;2022-07-22T09:48:37;5.63;;;3.55;;
54157;SDS011;40065;49.894;10.358;2022-07-22T09:54:02;6.20;;;3.78;;
54157;SDS011;40065;49.894;10.358;2022-07-22T09:59:06;5.15;;;3.40;;
54157;SDS011;40065;49.894;10.358;2022-07-22T10:04:12;6.85;;;3.53;;
54157;SDS011;40065;49.894;10.358;2022-07-22T10:09:16;4.88;;;3.53;;
54157;SDS011;40065;49.894;10.358;2022-07-22T10:14:21;4.88;;;3.53;;
54157;SDS011;40065;49.894;10.358;2022-07-22T10:19:26;4.22;;;3.10;;
54157;SDS011;40065;49.894;10.358;2022-07-22T10:24:29;6.78;;;3.70;;
54157;SDS011;40065;49.894;10.358;2022-07-22T10:29:41;6.85;;;3.92;;
54157;SDS011;40065;49.894;10.358;2022-07-22T10:45:16;4.13;;;3.50;;
54157;SDS011;40065;49.894;10.358;2022-07-22T10:55:57;4.70;;;3.42;;
54157;SDS011;40065;49.894;10.358;2022-07-22T11:01:00;4.38;;;3.67;;
54157;SDS011;40065;49.894;10.358;2022-07-22T11:06:14;4.65;;;3.78;;
54157;SDS011;40065;49.894;10.358;2022-07-22T11:11:41;9.13;;;4.32;;
54157;SDS011;40065;49.894;10.358;2022-07-22T11:16:47;6.28;;;3.97;;
54157;SDS011;40065;49.894;10.358;2022-07-22T11:21:51;6.28;;;3.88;;
54157;SDS011;40065;49.894;10.358;2022-07-22T11:26:55;6.57;;;4.15;;
54157;SDS011;40065;49.894;10.358;2022-07-22T11:32:06;5.95;;;3.60;;
54157;SDS011;40065;49.894;10.358;2022-07-22T11:37:10;4.32;;;3.60;;
54157;SDS011;40065;49.894;10.358;2022-07-22T11:42:13;5.47;;;3.67;;
54157;SDS011;40065;49.894;10.358;2022-07-22T11:52:17;4.85;;;3.35;;
54157;SDS011;40065;49.894;10.358;2022-07-22T11:57:19;4.53;;;3.72;;
54157;SDS011;40065;49.894;10.358;2022-07-22T12:02:20;4.93;;;4.18;;
54157;SDS011;40065;49.894;10.358;2022-07-22T12:07:23;6.30;;;3.60;;
54157;SDS011;40065;49.894;10.358;2022-07-22T12:17:42;6.70;;;3.60;;
54157;SDS011;40065;49.894;10.358;2022-07-22T12:22:45;3.97;;;3.22;;
54157;SDS011;40065;49.894;10.358;2022-07-22T12:28:00;3.92;;;3.10;;
54157;SDS011;40065;49.894;10.358;2022-07-22T12:33:02;7.18;;;3.80;;
54157;SDS011;40065;49.894;10.358;2022-07-22T12:38:05;4.00;;;3.40;;
54157;SDS011;40065;49.894;10.358;2022-07-22T12:43:09;6.45;;;3.90;;
54157;SDS011;40065;49.894;10.358;2022-07-22T12:48:11;7.18;;;3.78;;
54157;SDS011;40065;49.894;10.358;2022-07-22T12:53:14;6.18;;;4.03;;
54157;SDS011;40065;49.894;10.358;2022-07-22T12:58:19;6.68;;;3.65;;
54157;SDS011;40065;49.894;10.358;2022-07-22T13:03:23;6.10;;;3.70;;
54157;SDS011;40065;49.894;10.358;2022-07-22T13:08:29;4.93;;;3.53;;
54157;SDS011;40065;49.894;10.358;2022-07-22T13:13:46;6.25;;;3.50;;
54157;SDS011;40065;49.894;10.358;2022-07-22T13:18:51;3.75;;;3.33;;
54157;SDS011;40065;49.894;10.358;2022-07-22T13:23:53;4.60;;;3.58;;
54157;SDS011;40065;49.894;10.358;2022-07-22T13:28:55;5.20;;;3.65;;
54157;SDS011;40065;49.894;10.358;2022-07-22T13:33:57;3.95;;;3.30;;
54157;SDS011;40065;49.894;10.358;2022-07-22T13:39:00;8.25;;;4.07;;
54157;SDS011;40065;49.894;10.358;2022-07-22T13:44:03;5.35;;;3.35;;
54157;SDS011;40065;49.894;10.358;2022-07-22T13:49:11;5.43;;;3.30;;
54157;SDS011;40065;49.894;10.358;2022-07-22T13:54:13;3.85;;;3.00;;
54157;SDS011;40065;49.894;10.358;2022-07-22T13:59:15;7.88;;;4.00;;
54157;SDS011;40065;49.894;10.358;2022-07-22T14:04:17;3.58;;;3.03;;
54157;SDS011;40065;49.894;10.358;2022-07-22T14:14:37;6.22;;;3.20;;
54157;SDS011;40065;49.894;10.358;2022-07-22T14:19:39;5.57;;;3.20;;
54157;SDS011;40065;49.894;10.358;2022-07-22T14:24:41;6.53;;;3.72;;
54157;SDS011;40065;49.894;10.358;2022-07-22T14:29:42;5.18;;;3.17;;
54157;SDS011;40065;49.894;10.358;2022-07-22T14:34:44;4.88;;;3.10;;
54157;SDS011;40065;49.894;10.358;2022-07-22T14:39:46;6.18;;;3.17;;
54157;SDS011;40065;49.894;10.358;2022-07-22T14:44:48;3.28;;;2.97;;
54157;SDS011;40065;49.894;10.358;2022-07-22T14:49:50;4.72;;;3.00;;
54157;SDS011;40065;49.894;10.358;2022-07-22T14:54:51;5.88;;;3.38;;
54157;SDS011;40065;49.894;10.358;2022-07-22T14:59:53;4.07;;;3.30;;
54157;SDS011;40065;49.894;10.358;2022-07-22T15:04:55;5.35;;;3.40;;
54157;SDS011;40065;49.894;10.358;2022-07-22T15:09:57;3.92;;;3.22;;
54157;SDS011;40065;49.894;10.358;2022-07-22T15:14:59;5.25;;;3.53;;
54157;SDS011;40065;49.894;10.358;2022-07-22T15:20:02;4.70;;;3.03;;
54157;SDS011;40065;49.894;10.358;2022-07-22T15:25:06;5.35;;;3.10;;
54157;SDS011;40065;49.894;10.358;2022-07-22T15:35:11;4.38;;;3.60;;
54157;SDS011;40065;49.894;10.358;2022-07-22T15:40:12;5.65;;;3.60;;
54157;SDS011;40065;49.894;10.358;2022-07-22T15:45:14;5.07;;;3.20;;
54157;SDS011;40065;49.894;10.358;2022-07-22T15:50:16;4.40;;;3.45;;
54157;SDS011;40065;49.894;10.358;2022-07-22T15:55:22;4.65;;;3.28;;
54157;SDS011;40065;49.894;10.358;2022-07-22T16:00:24;3.65;;;2.90;;
54157;SDS011;40065;49.894;10.358;2022-07-22T16:05:26;3.70;;;2.97;;
54157;SDS011;40065;49.894;10.358;2022-07-22T16:10:28;3.75;;;3.00;;
54157;SDS011;40065;49.894;10.358;2022-07-22T16:15:30;4.50;;;3.30;;
54157;SDS011;40065;49.894;10.358;2022-07-22T16:20:32;4.57;;;3.05;;
54157;SDS011;40065;49.894;10.358;2022-07-22T16:25:34;4.63;;;3.10;;
54157;SDS011;40065;49.894;10.358;2022-07-22T16:30:36;4.68;;;3.45;;
54157;SDS011;40065;49.894;10.358;2022-07-22T16:35:37;5.97;;;3.50;;
54157;SDS011;40065;49.894;10.358;2022-07-22T16:40:39;5.30;;;3.55;;
54157;SDS011;40065;49.894;10.358;2022-07-22T16:45:43;6.18;;;3.60;;
54157;SDS011;40065;49.894;10.358;2022-07-22T16:50:45;4.15;;;3.25;;
54157;SDS011;40065;49.894;10.358;2022-07-22T16:55:46;4.93;;;3.17;;
54157;SDS011;40065;49.894;10.358;2022-07-22T17:00:48;5.03;;;3.10;;
54157;SDS011;40065;49.894;10.358;2022-07-22T17:05:50;4.07;;;2.80;;
54157;SDS011;40065;49.894;10.358;2022-07-22T17:10:52;6.07;;;3.20;;
54157;SDS011;40065;49.894;10.358;2022-07-22T17:15:57;4.53;;;3.30;;
54157;SDS011;40065;49.894;10.358;2022-07-22T17:20:59;4.97;;;2.72;;
54157;SDS011;40065;49.894;10.358;2022-07-22T17:26:05;3.78;;;3.20;;
54157;SDS011;40065;49.894;10.358;2022-07-22T17:31:08;6.25;;;2.90;;
54157;SDS011;40065;49.894;10.358;2022-07-22T17:36:10;5.07;;;3.50;;
54157;SDS011;40065;49.894;10.358;2022-07-22T17:41:12;5.47;;;2.93;;
54157;SDS011;40065;49.894;10.358;2022-07-22T17:46:15;3.97;;;2.90;;
54157;SDS011;40065;49.894;10.358;2022-07-22T17:51:18;6.07;;;4.03;;
54157;SDS011;40065;49.894;10.358;2022-07-22T17:56:27;5.70;;;3.38;;
54157;SDS011;40065;49.894;10.358;2022-07-22T18:01:32;4.93;;;2.97;;
54157;SDS011;40065;49.894;10.358;2022-07-22T18:06:34;4.30;;;2.80;;
54157;SDS011;40065;49.894;10.358;2022-07-22T18:11:36;6.20;;;3.13;;
54157;SDS011;40065;49.894;10.358;2022-07-22T18:16:38;4.78;;;3.00;;
54157;SDS011;40065;49.894;10.358;2022-07-22T18:21:40;4.80;;;3.30;;
54157;SDS011;40065;49.894;10.358;2022-07-22T18:26:42;4.15;;;2.80;;
54157;SDS011;40065;49.894;10.358;2022-07-22T18:31:44;3.87;;;2.93;;
54157;SDS011;40065;49.894;10.358;2022-07-22T18:36:46;7.90;;;2.77;;
54157;SDS011;40065;49.894;10.358;2022-07-22T18:41:47;5.78;;;3.60;;
54157;SDS011;40065;49.894;10.358;2022-07-22T18:46:49;5.95;;;3.10;;
54157;SDS011;40065;49.894;10.358;2022-07-22T18:51:51;4.87;;;2.77;;
54157;SDS011;40065;49.894;10.358;2022-07-22T19:01:57;4.15;;;3.40;;
54157;SDS011;40065;49.894;10.358;2022-07-22T19:06:59;5.50;;;3.80;;
54157;SDS011;40065;49.894;10.358;2022-07-22T19:12:01;4.57;;;2.70;;
54157;SDS011;40065;49.894;10.358;2022-07-22T19:17:02;4.05;;;3.10;;
54157;SDS011;40065;49.894;10.358;2022-07-22T19:22:04;5.43;;;3.00;;
54157;SDS011;40065;49.894;10.358;2022-07-22T19:27:06;8.80;;;3.80;;
54157;SDS011;40065;49.894;10.358;2022-07-22T19:32:09;4.28;;;3.20;;
54157;SDS011;40065;49.894;10.358;2022-07-22T19:37:11;8.50;;;3.60;;
54157;SDS011;40065;49.894;10.358;2022-07-22T19:42:14;5.40;;;3.15;;
54157;SDS011;40065;49.894;10.358;2022-07-22T19:47:16;9.63;;;2.92;;
54157;SDS011;40065;49.894;10.358;2022-07-22T19:52:22;4.50;;;3.40;;
54157;SDS011;40065;49.894;10.358;2022-07-22T19:57:24;4.00;;;3.47;;
54157;SDS011;40065;49.894;10.358;2022-07-22T20:02:26;4.32;;;2.90;;
54157;SDS011;40065;49.894;10.358;2022-07-22T20:07:28;4.45;;;3.25;;
54157;SDS011;40065;49.894;10.358;2022-07-22T20:12:30;4.18;;;3.60;;
54157;SDS011;40065;49.894;10.358;2022-07-22T20:17:32;4.40;;;3.42;;
54157;SDS011;40065;49.894;10.358;2022-07-22T20:22:33;5.22;;;3.47;;
54157;SDS011;40065;49.894;10.358;2022-07-22T20:27:36;5.00;;;3.50;;
54157;SDS011;40065;49.894;10.358;2022-07-22T20:32:39;4.95;;;3.08;;
54157;SDS011;40065;49.894;10.358;2022-07-22T20:37:42;6.15;;;3.70;;
54157;SDS011;40065;49.894;10.358;2022-07-22T20:42:43;7.13;;;3.60;;
54157;SDS011;40065;49.894;10.358;2022-07-22T20:47:45;4.85;;;3.63;;
54157;SDS011;40065;49.894;10.358;2022-07-22T20:52:47;9.40;;;3.53;;
54157;SDS011;40065;49.894;10.358;2022-07-22T20:57:49;6.28;;;2.80;;
54157;SDS011;40065;49.894;10.358;2022-07-22T21:02:51;7.32;;;3.30;;
54157;SDS011;40065;49.894;10.358;2022-07-22T21:07:53;4.97;;;3.22;;
54157;SDS011;40065;49.894;10.358;2022-07-22T21:12:59;3.78;;;3.20;;
54157;SDS011;40065;49.894;10.358;2022-07-22T21:18:02;4.75;;;3.58;;
54157;SDS011;40065;49.894;10.358;2022-07-22T21:23:04;4.63;;;3.65;;
54157;SDS011;40065;49.894;10.358;2022-07-22T21:28:06;4.53;;;3.30;;
54157;SDS011;40065;49.894;10.358;2022-07-22T21:33:08;6.30;;;3.60;;
54157;SDS011;40065;49.894;10.358;2022-07-22T21:38:10;4.40;;;2.55;;
54157;SDS011;40065;49.894;10.358;2022-07-22T21:43:12;4.57;;;2.88;;
54157;SDS011;40065;49.894;10.358;2022-07-22T21:48:14;6.70;;;4.13;;
54157;SDS011;40065;49.894;10.358;2022-07-22T21:53:16;4.82;;;4.10;;
54157;SDS011;40065;49.894;10.358;2022-07-22T21:58:19;5.75;;;3.70;;
54157;SDS011;40065;49.894;10.358;2022-07-22T22:03:20;8.65;;;4.05;;
54157;SDS011;40065;49.894;10.358;2022-07-22T22:08:22;6.75;;;3.65;;
54157;SDS011;40065;49.894;10.358;2022-07-22T22:13:24;4.53;;;2.88;;
54157;SDS011;40065;49.894;10.358;2022-07-22T22:18:26;4.45;;;2.95;;
54157;SDS011;40065;49.894;10.358;2022-07-22T22:23:27;4.78;;;3.47;;
54157;SDS011;40065;49.894;10.358;2022-07-22T22:28:29;5.25;;;3.33;;
54157;SDS011;40065;49.894;10.358;2022-07-22T22:33:31;3.72;;;3.00;;
54157;SDS011;40065;49.894;10.358;2022-07-22T22:38:33;3.95;;;3.25;;
54157;SDS011;40065;49.894;10.358;2022-07-22T22:43:35;8.82;;;3.60;;
54157;SDS011;40065;49.894;10.358;2022-07-22T22:48:37;4.85;;;3.72;;
54157;SDS011;40065;49.894;10.358;2022-07-22T22:53:39;7.30;;;3.67;;
54157;SDS011;40065;49.894;10.358;2022-07-22T22:58:41;4.97;;;3.97;;
54157;SDS011;40065;49.894;10.358;2022-07-22T23:03:42;5.10;;;3.70;;
54157;SDS011;40065;49.894;10.358;2022-07-22T23:08:44;6.07;;;3.97;;
54157;SDS011;40065;49.894;10.358;2022-07-22T23:13:46;6.97;;;4.22;;
54157;SDS011;40065;49.894;10.358;2022-07-22T23:18:48;6.90;;;3.67;;
54157;SDS011;40065;49.894;10.358;2022-07-22T23:23:50;4.88;;;3.20;;
54157;SDS011;40065;49.894;10.358;2022-07-22T23:28:52;4.38;;;3.58;;
54157;SDS011;40065;49.894;10.358;2022-07-22T23:33:54;4.78;;;3.80;;
54157;SDS011;40065;49.894;10.358;2022-07-22T23:38:56;6.10;;;3.63;;
54157;SDS011;40065;49.894;10.358;2022-07-22T23:43:58;3.93;;;2.90;;
54157;SDS011;40065;49.894;10.358;2022-07-22T23:49:01;3.72;;;3.30;;
54157;SDS011;40065;49.894;10.358;2022-07-22T23:54:04;5.05;;;3.40;;
54157;SDS011;40065;49.894;10.358;2022-07-22T23:59:06;3.17;;;2.80;;
